sensor_id;sensor_type;location;lat;lon;timestamp;P1;durP1;ratioP1;P2;durP2;ratioP2
5379;SDS011;2713;42.680;23.310;2023-05-03T00:00:43;2.83;;;2.63;;
5379;SDS011;2713;42.680;23.310;2023-05-03T00:03:09;2.60;;;2.30;;
5379;SDS011;2713;42.680;23.310;2023-05-03T00:05:37;2.50;;;2.30;;
5379;SDS011;2713;42.680;23.310;2023-05-03T00:08:04;2.87;;;2.67;;
5379;SDS011;2713;42.680;23.310;2023-05-03T00:10:31;3.50;;;2.70;;
5379;SDS011;2713;42.680;23.310;2023-05-03T00:12:59;3.30;;;2.03;;
5379;SDS011;2713;42.680;23.310;2023-05-03T00:15:26;4.10;;;2.57;;
5379;SDS011;2713;42.680;23.310;2023-05-03T00:17:53;3.43;;;2.67;;
5379;SDS011;2713;42.680;23.310;2023-05-03T00:20:20;3.00;;;2.80;;
5379;SDS011;2713;42.680;23.310;2023-05-03T00:22:47;3.03;;;2.73;;
5379;SDS011;2713;42.680;23.310;2023-05-03T00:25:14;3.07;;;2.50;;
5379;SDS011;2713;42.680;23.310;2023-05-03T00:27:41;4.10;;;2.37;;
5379;SDS011;2713;42.680;23.310;2023-05-03T00:30:09;2.80;;;2.60;;
5379;SDS011;2713;42.680;23.310;2023-05-03T00:32:37;3.80;;;3.00;;
5379;SDS011;2713;42.680;23.310;2023-05-03T00:35:04;2.97;;;2.30;;
5379;SDS011;2713;42.680;23.310;2023-05-03T00:37:31;2.60;;;2.40;;
5379;SDS011;2713;42.680;23.310;2023-05-03T00:39:58;3.47;;;2.90;;
5379;SDS011;2713;42.680;23.310;2023-05-03T00:42:25;2.80;;;2.60;;
5379;SDS011;2713;42.680;23.310;2023-05-03T00:44:53;4.00;;;2.70;;
5379;SDS011;2713;42.680;23.310;2023-05-03T00:47:22;4.13;;;2.83;;
5379;SDS011;2713;42.680;23.310;2023-05-03T00:49:49;5.97;;;2.70;;
5379;SDS011;2713;42.680;23.310;2023-05-03T00:52:16;3.70;;;3.33;;
5379;SDS011;2713;42.680;23.310;2023-05-03T00:54:42;4.40;;;2.47;;
5379;SDS011;2713;42.680;23.310;2023-05-03T00:57:10;4.20;;;2.50;;
5379;SDS011;2713;42.680;23.310;2023-05-03T00:59:37;3.00;;;2.80;;
5379;SDS011;2713;42.680;23.310;2023-05-03T01:02:04;2.60;;;2.40;;
5379;SDS011;2713;42.680;23.310;2023-05-03T01:04:32;3.07;;;2.50;;
5379;SDS011;2713;42.680;23.310;2023-05-03T01:07:02;3.00;;;2.70;;
5379;SDS011;2713;42.680;23.310;2023-05-03T01:09:42;2.80;;;2.60;;
5379;SDS011;2713;42.680;23.310;2023-05-03T01:12:18;3.20;;;2.90;;
5379;SDS011;2713;42.680;23.310;2023-05-03T01:14:53;3.27;;;2.80;;
5379;SDS011;2713;42.680;23.310;2023-05-03T01:17:28;3.53;;;2.70;;
5379;SDS011;2713;42.680;23.310;2023-05-03T01:20:03;4.33;;;2.87;;
5379;SDS011;2713;42.680;23.310;2023-05-03T01:22:36;3.03;;;2.50;;
5379;SDS011;2713;42.680;23.310;2023-05-03T01:25:14;3.87;;;2.70;;
5379;SDS011;2713;42.680;23.310;2023-05-03T01:27:41;3.03;;;2.77;;
5379;SDS011;2713;42.680;23.310;2023-05-03T01:30:09;3.00;;;2.80;;
5379;SDS011;2713;42.680;23.310;2023-05-03T01:32:40;4.40;;;3.10;;
5379;SDS011;2713;42.680;23.310;2023-05-03T01:35:16;3.60;;;2.60;;
5379;SDS011;2713;42.680;23.310;2023-05-03T01:37:48;3.80;;;2.70;;
5379;SDS011;2713;42.680;23.310;2023-05-03T01:40:18;3.40;;;2.73;;
5379;SDS011;2713;42.680;23.310;2023-05-03T01:42:46;3.10;;;2.80;;
5379;SDS011;2713;42.680;23.310;2023-05-03T01:45:14;4.60;;;2.60;;
5379;SDS011;2713;42.680;23.310;2023-05-03T01:47:41;2.80;;;2.37;;
5379;SDS011;2713;42.680;23.310;2023-05-03T01:50:08;2.97;;;2.77;;
5379;SDS011;2713;42.680;23.310;2023-05-03T01:52:35;3.53;;;2.80;;
5379;SDS011;2713;42.680;23.310;2023-05-03T01:55:03;3.37;;;3.03;;
5379;SDS011;2713;42.680;23.310;2023-05-03T01:57:31;2.80;;;2.60;;
5379;SDS011;2713;42.680;23.310;2023-05-03T01:59:58;2.53;;;2.37;;
5379;SDS011;2713;42.680;23.310;2023-05-03T02:02:25;3.37;;;3.07;;
5379;SDS011;2713;42.680;23.310;2023-05-03T02:04:51;3.07;;;2.50;;
5379;SDS011;2713;42.680;23.310;2023-05-03T02:07:18;3.27;;;3.07;;
5379;SDS011;2713;42.680;23.310;2023-05-03T02:09:45;3.53;;;3.00;;
5379;SDS011;2713;42.680;23.310;2023-05-03T02:12:12;2.60;;;2.40;;
5379;SDS011;2713;42.680;23.310;2023-05-03T02:14:40;2.90;;;2.57;;
5379;SDS011;2713;42.680;23.310;2023-05-03T02:17:07;2.97;;;2.77;;
5379;SDS011;2713;42.680;23.310;2023-05-03T02:19:36;3.23;;;2.90;;
5379;SDS011;2713;42.680;23.310;2023-05-03T02:22:02;3.63;;;2.60;;
5379;SDS011;2713;42.680;23.310;2023-05-03T02:24:29;3.17;;;2.57;;
5379;SDS011;2713;42.680;23.310;2023-05-03T02:27:00;4.00;;;2.70;;
5379;SDS011;2713;42.680;23.310;2023-05-03T02:29:28;5.07;;;2.83;;
5379;SDS011;2713;42.680;23.310;2023-05-03T02:31:57;3.57;;;2.80;;
5379;SDS011;2713;42.680;23.310;2023-05-03T02:34:24;3.60;;;2.80;;
5379;SDS011;2713;42.680;23.310;2023-05-03T02:36:51;2.67;;;2.47;;
5379;SDS011;2713;42.680;23.310;2023-05-03T02:39:19;2.73;;;2.53;;
5379;SDS011;2713;42.680;23.310;2023-05-03T02:41:46;2.83;;;2.50;;
5379;SDS011;2713;42.680;23.310;2023-05-03T02:44:13;4.20;;;3.00;;
5379;SDS011;2713;42.680;23.310;2023-05-03T02:46:40;2.93;;;2.50;;
5379;SDS011;2713;42.680;23.310;2023-05-03T02:49:09;5.50;;;3.10;;
5379;SDS011;2713;42.680;23.310;2023-05-03T02:51:35;4.90;;;3.07;;
5379;SDS011;2713;42.680;23.310;2023-05-03T02:54:02;3.00;;;2.80;;
5379;SDS011;2713;42.680;23.310;2023-05-03T02:56:29;5.70;;;2.53;;
5379;SDS011;2713;42.680;23.310;2023-05-03T02:58:57;3.23;;;2.93;;
5379;SDS011;2713;42.680;23.310;2023-05-03T03:01:25;3.30;;;2.77;;
5379;SDS011;2713;42.680;23.310;2023-05-03T03:03:52;3.40;;;2.57;;
5379;SDS011;2713;42.680;23.310;2023-05-03T03:06:20;3.00;;;2.80;;
5379;SDS011;2713;42.680;23.310;2023-05-03T03:08:47;3.20;;;2.90;;
5379;SDS011;2713;42.680;23.310;2023-05-03T03:11:14;4.20;;;3.00;;
5379;SDS011;2713;42.680;23.310;2023-05-03T03:13:41;3.20;;;2.83;;
5379;SDS011;2713;42.680;23.310;2023-05-03T03:16:08;2.80;;;2.60;;
5379;SDS011;2713;42.680;23.310;2023-05-03T03:18:35;3.10;;;2.80;;
5379;SDS011;2713;42.680;23.310;2023-05-03T03:21:03;3.00;;;2.80;;
5379;SDS011;2713;42.680;23.310;2023-05-03T03:23:32;3.23;;;3.00;;
5379;SDS011;2713;42.680;23.310;2023-05-03T03:25:59;3.43;;;3.03;;
5379;SDS011;2713;42.680;23.310;2023-05-03T03:28:26;3.43;;;3.07;;
5379;SDS011;2713;42.680;23.310;2023-05-03T03:30:56;3.10;;;2.90;;
5379;SDS011;2713;42.680;23.310;2023-05-03T03:33:24;3.13;;;2.87;;
5379;SDS011;2713;42.680;23.310;2023-05-03T03:35:54;4.23;;;3.50;;
5379;SDS011;2713;42.680;23.310;2023-05-03T03:38:26;3.67;;;3.20;;
5379;SDS011;2713;42.680;23.310;2023-05-03T03:41:01;2.90;;;2.70;;
5379;SDS011;2713;42.680;23.310;2023-05-03T03:43:28;4.87;;;2.90;;
5379;SDS011;2713;42.680;23.310;2023-05-03T03:45:56;6.10;;;2.90;;
5379;SDS011;2713;42.680;23.310;2023-05-03T03:48:22;2.83;;;2.63;;
5379;SDS011;2713;42.680;23.310;2023-05-03T03:50:49;5.40;;;3.20;;
5379;SDS011;2713;42.680;23.310;2023-05-03T03:53:19;2.83;;;2.73;;
5379;SDS011;2713;42.680;23.310;2023-05-03T03:55:45;3.63;;;2.57;;
5379;SDS011;2713;42.680;23.310;2023-05-03T03:58:16;4.03;;;3.00;;
5379;SDS011;2713;42.680;23.310;2023-05-03T04:00:43;3.03;;;2.73;;
5379;SDS011;2713;42.680;23.310;2023-05-03T04:03:14;3.00;;;2.80;;
5379;SDS011;2713;42.680;23.310;2023-05-03T04:05:41;3.33;;;3.03;;
5379;SDS011;2713;42.680;23.310;2023-05-03T04:08:08;4.17;;;3.27;;
5379;SDS011;2713;42.680;23.310;2023-05-03T04:10:36;5.20;;;3.10;;
5379;SDS011;2713;42.680;23.310;2023-05-03T04:13:04;3.40;;;3.00;;
5379;SDS011;2713;42.680;23.310;2023-05-03T04:15:32;2.87;;;2.63;;
5379;SDS011;2713;42.680;23.310;2023-05-03T04:18:01;3.23;;;2.90;;
5379;SDS011;2713;42.680;23.310;2023-05-03T04:20:30;2.97;;;2.70;;
5379;SDS011;2713;42.680;23.310;2023-05-03T04:22:58;6.10;;;3.17;;
5379;SDS011;2713;42.680;23.310;2023-05-03T04:25:27;3.37;;;3.07;;
5379;SDS011;2713;42.680;23.310;2023-05-03T04:28:00;3.53;;;3.03;;
5379;SDS011;2713;42.680;23.310;2023-05-03T04:30:28;3.37;;;3.13;;
5379;SDS011;2713;42.680;23.310;2023-05-03T04:33:00;3.90;;;3.37;;
5379;SDS011;2713;42.680;23.310;2023-05-03T04:35:30;4.20;;;2.70;;
5379;SDS011;2713;42.680;23.310;2023-05-03T04:38:01;3.60;;;3.30;;
5379;SDS011;2713;42.680;23.310;2023-05-03T04:40:29;3.63;;;3.33;;
5379;SDS011;2713;42.680;23.310;2023-05-03T04:43:01;7.37;;;3.40;;
5379;SDS011;2713;42.680;23.310;2023-05-03T04:45:30;3.80;;;3.50;;
5379;SDS011;2713;42.680;23.310;2023-05-03T04:47:59;4.20;;;3.83;;
5379;SDS011;2713;42.680;23.310;2023-05-03T04:50:29;3.33;;;3.10;;
5379;SDS011;2713;42.680;23.310;2023-05-03T04:52:57;6.73;;;3.17;;
5379;SDS011;2713;42.680;23.310;2023-05-03T04:55:26;3.80;;;3.50;;
5379;SDS011;2713;42.680;23.310;2023-05-03T04:57:55;3.60;;;3.30;;
5379;SDS011;2713;42.680;23.310;2023-05-03T05:00:22;4.60;;;3.27;;
5379;SDS011;2713;42.680;23.310;2023-05-03T05:02:55;3.43;;;3.13;;
5379;SDS011;2713;42.680;23.310;2023-05-03T05:05:25;6.07;;;3.43;;
5379;SDS011;2713;42.680;23.310;2023-05-03T05:07:52;4.70;;;3.40;;
5379;SDS011;2713;42.680;23.310;2023-05-03T05:10:20;4.53;;;3.47;;
5379;SDS011;2713;42.680;23.310;2023-05-03T05:12:46;12.00;;;3.50;;
5379;SDS011;2713;42.680;23.310;2023-05-03T05:15:13;3.97;;;3.30;;
5379;SDS011;2713;42.680;23.310;2023-05-03T05:17:40;4.23;;;3.47;;
5379;SDS011;2713;42.680;23.310;2023-05-03T05:20:09;3.87;;;3.57;;
5379;SDS011;2713;42.680;23.310;2023-05-03T05:22:42;4.57;;;4.17;;
5379;SDS011;2713;42.680;23.310;2023-05-03T05:25:09;4.50;;;4.10;;
5379;SDS011;2713;42.680;23.310;2023-05-03T05:27:36;6.33;;;3.50;;
5379;SDS011;2713;42.680;23.310;2023-05-03T05:30:04;4.03;;;3.63;;
5379;SDS011;2713;42.680;23.310;2023-05-03T05:32:33;3.87;;;3.60;;
5379;SDS011;2713;42.680;23.310;2023-05-03T05:35:00;4.10;;;3.80;;
5379;SDS011;2713;42.680;23.310;2023-05-03T05:37:32;5.50;;;4.20;;
5379;SDS011;2713;42.680;23.310;2023-05-03T05:40:04;3.97;;;3.57;;
5379;SDS011;2713;42.680;23.310;2023-05-03T05:42:40;4.00;;;3.60;;
5379;SDS011;2713;42.680;23.310;2023-05-03T05:45:07;3.97;;;3.53;;
5379;SDS011;2713;42.680;23.310;2023-05-03T05:47:37;3.90;;;3.60;;
5379;SDS011;2713;42.680;23.310;2023-05-03T05:50:05;3.63;;;3.30;;
5379;SDS011;2713;42.680;23.310;2023-05-03T05:52:33;5.50;;;3.67;;
5379;SDS011;2713;42.680;23.310;2023-05-03T05:55:00;4.20;;;3.60;;
5379;SDS011;2713;42.680;23.310;2023-05-03T05:57:29;5.10;;;3.40;;
5379;SDS011;2713;42.680;23.310;2023-05-03T05:59:55;3.37;;;3.07;;
5379;SDS011;2713;42.680;23.310;2023-05-03T06:02:23;4.80;;;3.67;;
5379;SDS011;2713;42.680;23.310;2023-05-03T06:04:50;4.13;;;3.73;;
5379;SDS011;2713;42.680;23.310;2023-05-03T06:07:17;4.50;;;4.10;;
5379;SDS011;2713;42.680;23.310;2023-05-03T06:09:44;5.10;;;4.10;;
5379;SDS011;2713;42.680;23.310;2023-05-03T06:12:11;4.13;;;3.73;;
5379;SDS011;2713;42.680;23.310;2023-05-03T06:14:42;5.40;;;3.60;;
5379;SDS011;2713;42.680;23.310;2023-05-03T06:17:10;4.57;;;3.70;;
5379;SDS011;2713;42.680;23.310;2023-05-03T06:19:36;4.17;;;3.63;;
5379;SDS011;2713;42.680;23.310;2023-05-03T06:22:03;3.80;;;3.50;;
5379;SDS011;2713;42.680;23.310;2023-05-03T06:24:33;4.30;;;3.83;;
5379;SDS011;2713;42.680;23.310;2023-05-03T06:26:59;4.30;;;3.90;;
5379;SDS011;2713;42.680;23.310;2023-05-03T06:29:28;4.03;;;3.70;;
5379;SDS011;2713;42.680;23.310;2023-05-03T06:31:57;4.40;;;4.00;;
5379;SDS011;2713;42.680;23.310;2023-05-03T06:34:24;4.00;;;3.70;;
5379;SDS011;2713;42.680;23.310;2023-05-03T06:36:53;4.00;;;3.70;;
5379;SDS011;2713;42.680;23.310;2023-05-03T06:39:20;3.77;;;3.43;;
5379;SDS011;2713;42.680;23.310;2023-05-03T06:41:47;4.13;;;3.57;;
5379;SDS011;2713;42.680;23.310;2023-05-03T06:44:15;6.00;;;4.30;;
5379;SDS011;2713;42.680;23.310;2023-05-03T06:46:44;5.93;;;3.77;;
5379;SDS011;2713;42.680;23.310;2023-05-03T06:49:12;5.07;;;4.10;;
5379;SDS011;2713;42.680;23.310;2023-05-03T06:51:39;6.20;;;3.97;;
5379;SDS011;2713;42.680;23.310;2023-05-03T06:54:06;3.87;;;3.50;;
5379;SDS011;2713;42.680;23.310;2023-05-03T06:56:34;4.97;;;3.87;;
5379;SDS011;2713;42.680;23.310;2023-05-03T06:59:01;5.63;;;3.97;;
5379;SDS011;2713;42.680;23.310;2023-05-03T07:01:28;3.77;;;3.47;;
5379;SDS011;2713;42.680;23.310;2023-05-03T07:03:56;6.63;;;3.97;;
5379;SDS011;2713;42.680;23.310;2023-05-03T07:06:24;4.40;;;3.63;;
5379;SDS011;2713;42.680;23.310;2023-05-03T07:08:51;6.77;;;3.60;;
5379;SDS011;2713;42.680;23.310;2023-05-03T07:11:19;3.60;;;3.40;;
5379;SDS011;2713;42.680;23.310;2023-05-03T07:13:48;6.80;;;3.77;;
5379;SDS011;2713;42.680;23.310;2023-05-03T07:16:15;4.17;;;3.57;;
5379;SDS011;2713;42.680;23.310;2023-05-03T07:18:42;3.90;;;3.40;;
5379;SDS011;2713;42.680;23.310;2023-05-03T07:21:09;4.07;;;3.77;;
5379;SDS011;2713;42.680;23.310;2023-05-03T07:23:37;5.93;;;3.43;;
5379;SDS011;2713;42.680;23.310;2023-05-03T07:26:04;4.33;;;3.50;;
5379;SDS011;2713;42.680;23.310;2023-05-03T07:28:31;4.00;;;3.70;;
5379;SDS011;2713;42.680;23.310;2023-05-03T07:30:57;4.80;;;3.90;;
5379;SDS011;2713;42.680;23.310;2023-05-03T07:33:25;4.17;;;3.77;;
5379;SDS011;2713;42.680;23.310;2023-05-03T07:35:51;6.87;;;4.03;;
5379;SDS011;2713;42.680;23.310;2023-05-03T07:38:18;3.90;;;3.60;;
5379;SDS011;2713;42.680;23.310;2023-05-03T07:40:46;4.60;;;3.70;;
5379;SDS011;2713;42.680;23.310;2023-05-03T07:43:13;4.30;;;3.80;;
5379;SDS011;2713;42.680;23.310;2023-05-03T07:45:40;3.90;;;3.60;;
5379;SDS011;2713;42.680;23.310;2023-05-03T07:48:07;5.23;;;3.80;;
5379;SDS011;2713;42.680;23.310;2023-05-03T07:50:35;8.93;;;4.10;;
5379;SDS011;2713;42.680;23.310;2023-05-03T07:53:02;4.40;;;3.90;;
5379;SDS011;2713;42.680;23.310;2023-05-03T07:55:29;3.73;;;3.43;;
5379;SDS011;2713;42.680;23.310;2023-05-03T07:57:58;3.57;;;3.27;;
5379;SDS011;2713;42.680;23.310;2023-05-03T08:00:25;4.93;;;3.67;;
5379;SDS011;2713;42.680;23.310;2023-05-03T08:02:52;4.13;;;3.77;;
5379;SDS011;2713;42.680;23.310;2023-05-03T08:05:20;4.20;;;3.90;;
5379;SDS011;2713;42.680;23.310;2023-05-03T08:07:47;4.33;;;3.93;;
5379;SDS011;2713;42.680;23.310;2023-05-03T08:10:14;6.20;;;4.27;;
5379;SDS011;2713;42.680;23.310;2023-05-03T08:12:42;4.60;;;4.20;;
5379;SDS011;2713;42.680;23.310;2023-05-03T08:15:11;8.60;;;4.27;;
5379;SDS011;2713;42.680;23.310;2023-05-03T08:17:41;4.77;;;4.27;;
5379;SDS011;2713;42.680;23.310;2023-05-03T08:20:09;4.50;;;4.13;;
5379;SDS011;2713;42.680;23.310;2023-05-03T08:22:36;4.23;;;3.93;;
5379;SDS011;2713;42.680;23.310;2023-05-03T08:25:04;5.10;;;4.60;;
5379;SDS011;2713;42.680;23.310;2023-05-03T08:27:32;4.90;;;4.50;;
5379;SDS011;2713;42.680;23.310;2023-05-03T08:29:59;5.40;;;5.00;;
5379;SDS011;2713;42.680;23.310;2023-05-03T08:32:28;5.63;;;5.03;;
5379;SDS011;2713;42.680;23.310;2023-05-03T08:34:55;5.20;;;4.70;;
5379;SDS011;2713;42.680;23.310;2023-05-03T08:37:22;5.30;;;4.80;;
5379;SDS011;2713;42.680;23.310;2023-05-03T08:39:49;4.80;;;4.40;;
5379;SDS011;2713;42.680;23.310;2023-05-03T08:42:16;5.23;;;4.77;;
5379;SDS011;2713;42.680;23.310;2023-05-03T08:44:44;4.80;;;4.40;;
5379;SDS011;2713;42.680;23.310;2023-05-03T08:47:14;4.83;;;4.43;;
5379;SDS011;2713;42.680;23.310;2023-05-03T08:49:43;4.73;;;4.33;;
5379;SDS011;2713;42.680;23.310;2023-05-03T08:52:10;6.43;;;4.20;;
5379;SDS011;2713;42.680;23.310;2023-05-03T08:54:40;4.90;;;4.40;;
5379;SDS011;2713;42.680;23.310;2023-05-03T08:57:09;4.70;;;4.30;;
5379;SDS011;2713;42.680;23.310;2023-05-03T09:02:12;6.33;;;5.00;;
5379;SDS011;2713;42.680;23.310;2023-05-03T09:04:40;4.97;;;4.57;;
5379;SDS011;2713;42.680;23.310;2023-05-03T09:07:08;5.33;;;4.93;;
5379;SDS011;2713;42.680;23.310;2023-05-03T09:09:36;5.23;;;4.43;;
5379;SDS011;2713;42.680;23.310;2023-05-03T09:12:03;7.23;;;4.97;;
5379;SDS011;2713;42.680;23.310;2023-05-03T09:14:30;5.53;;;4.70;;
5379;SDS011;2713;42.680;23.310;2023-05-03T09:17:14;5.47;;;4.97;;
5379;SDS011;2713;42.680;23.310;2023-05-03T09:19:48;5.20;;;4.70;;
5379;SDS011;2713;42.680;23.310;2023-05-03T09:22:33;4.90;;;4.50;;
5379;SDS011;2713;42.680;23.310;2023-05-03T09:25:01;5.60;;;4.60;;
5379;SDS011;2713;42.680;23.310;2023-05-03T09:27:29;4.73;;;4.43;;
5379;SDS011;2713;42.680;23.310;2023-05-03T09:29:56;6.00;;;5.40;;
5379;SDS011;2713;42.680;23.310;2023-05-03T09:32:46;7.50;;;5.40;;
5379;SDS011;2713;42.680;23.310;2023-05-03T09:35:15;7.10;;;5.10;;
5379;SDS011;2713;42.680;23.310;2023-05-03T09:37:43;5.87;;;5.00;;
5379;SDS011;2713;42.680;23.310;2023-05-03T09:40:10;5.97;;;5.33;;
5379;SDS011;2713;42.680;23.310;2023-05-03T09:42:45;6.00;;;5.30;;
5379;SDS011;2713;42.680;23.310;2023-05-03T09:45:30;5.63;;;5.03;;
5379;SDS011;2713;42.680;23.310;2023-05-03T09:47:59;5.63;;;5.20;;
5379;SDS011;2713;42.680;23.310;2023-05-03T09:50:27;6.77;;;5.10;;
5379;SDS011;2713;42.680;23.310;2023-05-03T09:52:58;6.03;;;5.20;;
5379;SDS011;2713;42.680;23.310;2023-05-03T09:55:27;5.07;;;4.67;;
5379;SDS011;2713;42.680;23.310;2023-05-03T09:57:57;4.83;;;4.43;;
5379;SDS011;2713;42.680;23.310;2023-05-03T10:00:40;5.50;;;5.00;;
5379;SDS011;2713;42.680;23.310;2023-05-03T10:03:11;5.60;;;5.07;;
5379;SDS011;2713;42.680;23.310;2023-05-03T10:05:45;5.97;;;5.47;;
5379;SDS011;2713;42.680;23.310;2023-05-03T10:08:31;7.20;;;5.10;;
5379;SDS011;2713;42.680;23.310;2023-05-03T10:10:59;6.47;;;4.93;;
5379;SDS011;2713;42.680;23.310;2023-05-03T10:13:29;5.90;;;5.33;;
5379;SDS011;2713;42.680;23.310;2023-05-03T10:15:57;7.07;;;5.30;;
5379;SDS011;2713;42.680;23.310;2023-05-03T10:18:28;5.53;;;5.00;;
5379;SDS011;2713;42.680;23.310;2023-05-03T10:21:00;5.37;;;4.97;;
5379;SDS011;2713;42.680;23.310;2023-05-03T10:23:31;5.60;;;5.10;;
5379;SDS011;2713;42.680;23.310;2023-05-03T10:26:12;5.70;;;5.20;;
5379;SDS011;2713;42.680;23.310;2023-05-03T10:28:39;4.97;;;4.67;;
5379;SDS011;2713;42.680;23.310;2023-05-03T10:31:12;5.20;;;4.70;;
5379;SDS011;2713;42.680;23.310;2023-05-03T10:34:21;5.47;;;5.00;;
5379;SDS011;2713;42.680;23.310;2023-05-03T10:36:50;5.07;;;4.23;;
5379;SDS011;2713;42.680;23.310;2023-05-03T10:39:20;5.33;;;4.80;;
5379;SDS011;2713;42.680;23.310;2023-05-03T10:41:56;7.23;;;5.10;;
5379;SDS011;2713;42.680;23.310;2023-05-03T10:44:25;5.83;;;5.00;;
5379;SDS011;2713;42.680;23.310;2023-05-03T10:46:53;5.97;;;5.47;;
5379;SDS011;2713;42.680;23.310;2023-05-03T10:49:20;5.50;;;5.00;;
5379;SDS011;2713;42.680;23.310;2023-05-03T10:51:50;4.87;;;4.53;;
5379;SDS011;2713;42.680;23.310;2023-05-03T10:54:17;5.00;;;4.60;;
5379;SDS011;2713;42.680;23.310;2023-05-03T10:56:52;4.30;;;4.00;;
5379;SDS011;2713;42.680;23.310;2023-05-03T10:59:21;5.40;;;4.90;;
5379;SDS011;2713;42.680;23.310;2023-05-03T11:01:51;4.80;;;4.23;;
5379;SDS011;2713;42.680;23.310;2023-05-03T11:04:25;4.60;;;4.20;;
5379;SDS011;2713;42.680;23.310;2023-05-03T11:06:59;4.83;;;4.30;;
5379;SDS011;2713;42.680;23.310;2023-05-03T11:09:30;6.27;;;4.83;;
5379;SDS011;2713;42.680;23.310;2023-05-03T11:12:01;4.70;;;4.30;;
5379;SDS011;2713;42.680;23.310;2023-05-03T11:14:29;5.03;;;4.53;;
5379;SDS011;2713;42.680;23.310;2023-05-03T11:16:56;5.20;;;4.80;;
5379;SDS011;2713;42.680;23.310;2023-05-03T11:19:23;4.57;;;4.27;;
5379;SDS011;2713;42.680;23.310;2023-05-03T11:21:51;6.93;;;4.13;;
5379;SDS011;2713;42.680;23.310;2023-05-03T11:24:18;4.87;;;4.10;;
5379;SDS011;2713;42.680;23.310;2023-05-03T11:26:45;4.43;;;4.13;;
5379;SDS011;2713;42.680;23.310;2023-05-03T11:29:14;6.00;;;4.90;;
5379;SDS011;2713;42.680;23.310;2023-05-03T11:31:42;5.90;;;5.23;;
5379;SDS011;2713;42.680;23.310;2023-05-03T11:34:10;5.43;;;4.93;;
5379;SDS011;2713;42.680;23.310;2023-05-03T11:36:37;5.07;;;4.67;;
5379;SDS011;2713;42.680;23.310;2023-05-03T11:39:06;5.43;;;4.73;;
5379;SDS011;2713;42.680;23.310;2023-05-03T11:41:33;3.93;;;3.73;;
5379;SDS011;2713;42.680;23.310;2023-05-03T11:44:00;5.70;;;4.63;;
5379;SDS011;2713;42.680;23.310;2023-05-03T11:46:30;9.00;;;4.50;;
5379;SDS011;2713;42.680;23.310;2023-05-03T11:51:24;4.87;;;4.47;;
5379;SDS011;2713;42.680;23.310;2023-05-03T11:53:54;5.07;;;4.47;;
5379;SDS011;2713;42.680;23.310;2023-05-03T11:56:31;5.60;;;5.03;;
5379;SDS011;2713;42.680;23.310;2023-05-03T11:58:59;7.83;;;4.70;;
5379;SDS011;2713;42.680;23.310;2023-05-03T12:01:26;6.30;;;4.40;;
5379;SDS011;2713;42.680;23.310;2023-05-03T12:03:56;4.70;;;4.40;;
5379;SDS011;2713;42.680;23.310;2023-05-03T12:06:24;4.37;;;4.00;;
5379;SDS011;2713;42.680;23.310;2023-05-03T12:08:52;4.67;;;4.37;;
5379;SDS011;2713;42.680;23.310;2023-05-03T12:14:05;5.07;;;4.67;;
5379;SDS011;2713;42.680;23.310;2023-05-03T12:16:44;5.37;;;4.87;;
5379;SDS011;2713;42.680;23.310;2023-05-03T12:19:21;5.17;;;4.67;;
5379;SDS011;2713;42.680;23.310;2023-05-03T12:22:19;5.07;;;4.57;;
5379;SDS011;2713;42.680;23.310;2023-05-03T12:24:45;4.60;;;4.20;;
5379;SDS011;2713;42.680;23.310;2023-05-03T12:27:12;5.83;;;5.10;;
5379;SDS011;2713;42.680;23.310;2023-05-03T12:29:39;5.30;;;4.30;;
5379;SDS011;2713;42.680;23.310;2023-05-03T12:32:06;5.30;;;4.90;;
5379;SDS011;2713;42.680;23.310;2023-05-03T12:34:33;4.80;;;4.50;;
5379;SDS011;2713;42.680;23.310;2023-05-03T12:37:04;6.23;;;4.20;;
5379;SDS011;2713;42.680;23.310;2023-05-03T12:39:32;5.27;;;4.77;;
5379;SDS011;2713;42.680;23.310;2023-05-03T12:42:00;5.43;;;4.93;;
5379;SDS011;2713;42.680;23.310;2023-05-03T12:44:27;5.17;;;4.67;;
5379;SDS011;2713;42.680;23.310;2023-05-03T12:46:54;5.83;;;4.43;;
5379;SDS011;2713;42.680;23.310;2023-05-03T12:49:21;6.63;;;5.30;;
5379;SDS011;2713;42.680;23.310;2023-05-03T12:51:48;5.03;;;4.57;;
5379;SDS011;2713;42.680;23.310;2023-05-03T12:54:16;9.83;;;5.27;;
5379;SDS011;2713;42.680;23.310;2023-05-03T12:56:44;8.97;;;5.90;;
5379;SDS011;2713;42.680;23.310;2023-05-03T12:59:11;6.17;;;5.40;;
5379;SDS011;2713;42.680;23.310;2023-05-03T13:01:38;7.57;;;5.07;;
5379;SDS011;2713;42.680;23.310;2023-05-03T13:04:05;5.23;;;4.80;;
5379;SDS011;2713;42.680;23.310;2023-05-03T13:06:31;5.30;;;4.80;;
5379;SDS011;2713;42.680;23.310;2023-05-03T13:09:00;6.07;;;5.47;;
5379;SDS011;2713;42.680;23.310;2023-05-03T13:11:28;5.50;;;5.10;;
5379;SDS011;2713;42.680;23.310;2023-05-03T13:13:56;5.93;;;5.43;;
5379;SDS011;2713;42.680;23.310;2023-05-03T13:16:23;7.57;;;5.50;;
5379;SDS011;2713;42.680;23.310;2023-05-03T13:18:50;6.03;;;5.53;;
5379;SDS011;2713;42.680;23.310;2023-05-03T13:21:19;6.03;;;5.53;;
5379;SDS011;2713;42.680;23.310;2023-05-03T13:23:46;6.07;;;5.47;;
5379;SDS011;2713;42.680;23.310;2023-05-03T13:26:13;10.43;;;5.40;;
5379;SDS011;2713;42.680;23.310;2023-05-03T13:28:40;6.60;;;5.27;;
5379;SDS011;2713;42.680;23.310;2023-05-03T13:31:08;6.20;;;5.60;;
5379;SDS011;2713;42.680;23.310;2023-05-03T13:33:36;9.33;;;5.73;;
5379;SDS011;2713;42.680;23.310;2023-05-03T13:36:03;6.60;;;6.00;;
5379;SDS011;2713;42.680;23.310;2023-05-03T13:38:30;7.20;;;6.07;;
5379;SDS011;2713;42.680;23.310;2023-05-03T13:40:58;6.00;;;5.50;;
5379;SDS011;2713;42.680;23.310;2023-05-03T13:43:25;6.53;;;5.90;;
5379;SDS011;2713;42.680;23.310;2023-05-03T13:45:58;7.57;;;5.80;;
5379;SDS011;2713;42.680;23.310;2023-05-03T13:48:27;6.90;;;6.03;;
5379;SDS011;2713;42.680;23.310;2023-05-03T13:50:54;7.73;;;7.03;;
5379;SDS011;2713;42.680;23.310;2023-05-03T13:53:31;8.00;;;6.60;;
5379;SDS011;2713;42.680;23.310;2023-05-03T13:55:58;10.70;;;6.80;;
5379;SDS011;2713;42.680;23.310;2023-05-03T13:58:25;8.60;;;6.97;;
5379;SDS011;2713;42.680;23.310;2023-05-03T14:00:52;7.80;;;7.10;;
5379;SDS011;2713;42.680;23.310;2023-05-03T14:03:19;10.10;;;8.63;;
5379;SDS011;2713;42.680;23.310;2023-05-03T14:05:47;9.90;;;7.87;;
5379;SDS011;2713;42.680;23.310;2023-05-03T14:08:14;8.70;;;7.53;;
5379;SDS011;2713;42.680;23.310;2023-05-03T14:10:42;10.60;;;8.43;;
5379;SDS011;2713;42.680;23.310;2023-05-03T14:13:09;9.87;;;8.47;;
5379;SDS011;2713;42.680;23.310;2023-05-03T14:15:39;10.23;;;8.60;;
5379;SDS011;2713;42.680;23.310;2023-05-03T14:18:08;10.03;;;8.60;;
5379;SDS011;2713;42.680;23.310;2023-05-03T14:20:35;9.87;;;8.77;;
5379;SDS011;2713;42.680;23.310;2023-05-03T14:23:04;10.13;;;9.00;;
5379;SDS011;2713;42.680;23.310;2023-05-03T14:25:31;10.23;;;9.20;;
5379;SDS011;2713;42.680;23.310;2023-05-03T14:27:58;11.67;;;9.30;;
5379;SDS011;2713;42.680;23.310;2023-05-03T14:30:25;12.10;;;9.40;;
5379;SDS011;2713;42.680;23.310;2023-05-03T14:32:52;10.23;;;8.60;;
5379;SDS011;2713;42.680;23.310;2023-05-03T14:35:19;11.07;;;9.80;;
5379;SDS011;2713;42.680;23.310;2023-05-03T14:37:46;10.20;;;8.20;;
5379;SDS011;2713;42.680;23.310;2023-05-03T14:40:16;10.30;;;8.97;;
5379;SDS011;2713;42.680;23.310;2023-05-03T14:42:42;9.73;;;8.83;;
5379;SDS011;2713;42.680;23.310;2023-05-03T14:45:09;9.50;;;8.50;;
5379;SDS011;2713;42.680;23.310;2023-05-03T14:47:39;9.97;;;9.07;;
5379;SDS011;2713;42.680;23.310;2023-05-03T14:50:06;10.93;;;9.43;;
5379;SDS011;2713;42.680;23.310;2023-05-03T14:52:45;10.43;;;9.43;;
5379;SDS011;2713;42.680;23.310;2023-05-03T14:55:21;11.93;;;9.03;;
5379;SDS011;2713;42.680;23.310;2023-05-03T14:57:49;9.97;;;8.40;;
5379;SDS011;2713;42.680;23.310;2023-05-03T15:00:16;11.13;;;8.50;;
5379;SDS011;2713;42.680;23.310;2023-05-03T15:02:44;9.90;;;8.97;;
5379;SDS011;2713;42.680;23.310;2023-05-03T15:05:11;9.97;;;8.90;;
5379;SDS011;2713;42.680;23.310;2023-05-03T15:07:39;9.13;;;8.33;;
5379;SDS011;2713;42.680;23.310;2023-05-03T15:10:09;11.90;;;8.57;;
5379;SDS011;2713;42.680;23.310;2023-05-03T15:12:38;10.53;;;9.40;;
5379;SDS011;2713;42.680;23.310;2023-05-03T15:15:07;9.60;;;8.50;;
5379;SDS011;2713;42.680;23.310;2023-05-03T15:17:36;10.10;;;9.20;;